sensor_id;sensor_type;location;lat;lon;timestamp;pressure;altitude;pressure_sealevel;temperature;humidity
6200;BME280;3133;43.214;27.906;2023-02-11T00:00:55;102697.56;;;-3.49;100.00
6200;BME280;3133;43.214;27.906;2023-02-11T00:03:22;102684.16;;;-3.57;100.00
6200;BME280;3133;43.214;27.906;2023-02-11T00:06:02;102695.63;;;-3.52;100.00
6200;BME280;3133;43.214;27.906;2023-02-11T00:08:33;102590.78;;;-4.02;100.00
6200;BME280;3133;43.214;27.906;2023-02-11T00:11:00;102696.97;;;-3.47;100.00
6200;BME280;3133;43.214;27.906;2023-02-11T00:13:29;102669.88;;;-3.55;100.00
6200;BME280;3133;43.214;27.906;2023-02-11T00:15:56;102631.50;;;-3.75;100.00
6200;BME280;3133;43.214;27.906;2023-02-11T00:18:22;102693.16;;;-3.60;100.00
6200;BME280;3133;43.214;27.906;2023-02-11T00:20:49;102674.44;;;-3.88;100.00
6200;BME280;3133;43.214;27.906;2023-02-11T00:23:16;102629.47;;;-4.06;100.00
6200;BME280;3133;43.214;27.906;2023-02-11T00:25:44;102681.78;;;-3.64;100.00
6200;BME280;3133;43.214;27.906;2023-02-11T00:28:11;102673.34;;;-3.81;100.00
6200;BME280;3133;43.214;27.906;2023-02-11T00:30:40;102679.28;;;-3.91;100.00
6200;BME280;3133;43.214;27.906;2023-02-11T00:33:06;102672.31;;;-3.83;100.00
6200;BME280;3133;43.214;27.906;2023-02-11T00:35:36;102597.22;;;-4.24;100.00
6200;BME280;3133;43.214;27.906;2023-02-11T00:38:03;102651.38;;;-3.90;100.00
6200;BME280;3133;43.214;27.906;2023-02-11T00:40:29;102686.03;;;-3.73;100.00
6200;BME280;3133;43.214;27.906;2023-02-11T00:42:56;102676.13;;;-3.70;100.00
6200;BME280;3133;43.214;27.906;2023-02-11T00:45:23;102649.88;;;-3.88;100.00
6200;BME280;3133;43.214;27.906;2023-02-11T00:47:51;102680.69;;;-3.76;100.00
6200;BME280;3133;43.214;27.906;2023-02-11T00:50:18;102679.78;;;-3.76;100.00
6200;BME280;3133;43.214;27.906;2023-02-11T00:52:45;102647.50;;;-3.95;100.00
6200;BME280;3133;43.214;27.906;2023-02-11T00:55:12;102671.00;;;-3.89;100.00
6200;BME280;3133;43.214;27.906;2023-02-11T00:57:39;102666.56;;;-3.72;100.00
6200;BME280;3133;43.214;27.906;2023-02-11T01:00:07;102667.50;;;-3.80;100.00
6200;BME280;3133;43.214;27.906;2023-02-11T01:02:35;102651.19;;;-3.82;100.00
6200;BME280;3133;43.214;27.906;2023-02-11T01:05:03;102627.59;;;-3.99;100.00
6200;BME280;3133;43.214;27.906;2023-02-11T01:07:31;102629.97;;;-3.92;100.00
6200;BME280;3133;43.214;27.906;2023-02-11T01:09:58;102657.16;;;-3.82;100.00
6200;BME280;3133;43.214;27.906;2023-02-11T01:12:25;102657.81;;;-3.84;100.00
6200;BME280;3133;43.214;27.906;2023-02-11T01:14:52;102569.88;;;-4.35;100.00
6200;BME280;3133;43.214;27.906;2023-02-11T01:17:18;102651.47;;;-3.79;100.00
6200;BME280;3133;43.214;27.906;2023-02-11T01:19:45;102650.41;;;-3.81;100.00
6200;BME280;3133;43.214;27.906;2023-02-11T01:22:13;102650.56;;;-3.80;100.00
6200;BME280;3133;43.214;27.906;2023-02-11T01:24:40;102641.31;;;-3.88;100.00
6200;BME280;3133;43.214;27.906;2023-02-11T01:27:07;102640.03;;;-3.93;100.00
6200;BME280;3133;43.214;27.906;2023-02-11T01:29:36;102641.19;;;-3.90;100.00
6200;BME280;3133;43.214;27.906;2023-02-11T01:32:03;102637.63;;;-3.92;100.00
6200;BME280;3133;43.214;27.906;2023-02-11T01:34:30;102558.69;;;-4.46;100.00
6200;BME280;3133;43.214;27.906;2023-02-11T01:36:58;102604.91;;;-4.33;100.00
6200;BME280;3133;43.214;27.906;2023-02-11T01:39:26;102631.53;;;-4.29;100.00
6200;BME280;3133;43.214;27.906;2023-02-11T01:41:53;102632.13;;;-4.23;100.00
6200;BME280;3133;43.214;27.906;2023-02-11T01:44:23;102635.88;;;-4.28;100.00
6200;BME280;3133;43.214;27.906;2023-02-11T01:46:50;102640.78;;;-4.21;100.00
6200;BME280;3133;43.214;27.906;2023-02-11T01:49:20;102509.00;;;-4.97;100.00
6200;BME280;3133;43.214;27.906;2023-02-11T01:51:54;102617.19;;;-4.37;100.00
6200;BME280;3133;43.214;27.906;2023-02-11T01:54:25;102640.97;;;-4.28;100.00
6200;BME280;3133;43.214;27.906;2023-02-11T01:57:15;102601.06;;;-4.46;100.00
6200;BME280;3133;43.214;27.906;2023-02-11T01:59:58;102547.63;;;-4.74;100.00
6200;BME280;3133;43.214;27.906;2023-02-11T02:02:31;102587.66;;;-4.54;100.00
6200;BME280;3133;43.214;27.906;2023-02-11T02:05:09;102643.66;;;-4.27;100.00
6200;BME280;3133;43.214;27.906;2023-02-11T02:07:44;102644.72;;;-4.33;100.00
6200;BME280;3133;43.214;27.906;2023-02-11T02:10:16;102600.28;;;-4.64;100.00
6200;BME280;3133;43.214;27.906;2023-02-11T02:12:46;102613.25;;;-4.61;100.00
6200;BME280;3133;43.214;27.906;2023-02-11T02:15:23;102637.59;;;-4.46;100.00
6200;BME280;3133;43.214;27.906;2023-02-11T02:17:59;102640.63;;;-4.50;100.00
6200;BME280;3133;43.214;27.906;2023-02-11T02:23:42;102648.41;;;-4.57;100.00
6200;BME280;3133;43.214;27.906;2023-02-11T02:32:39;102629.63;;;-4.76;100.00
6200;BME280;3133;43.214;27.906;2023-02-11T02:35:18;102561.38;;;-5.07;100.00
6200;BME280;3133;43.214;27.906;2023-02-11T02:37:51;102647.47;;;-4.40;100.00
6200;BME280;3133;43.214;27.906;2023-02-11T02:40:25;102646.50;;;-4.24;100.00
6200;BME280;3133;43.214;27.906;2023-02-11T02:42:54;102599.56;;;-4.44;100.00
6200;BME280;3133;43.214;27.906;2023-02-11T02:45:20;102544.34;;;-4.73;100.00
6200;BME280;3133;43.214;27.906;2023-02-11T02:47:49;102440.16;;;-5.25;100.00
6200;BME280;3133;43.214;27.906;2023-02-11T02:50:20;102649.19;;;-4.04;100.00
6200;BME280;3133;43.214;27.906;2023-02-11T02:52:56;102654.16;;;-4.05;100.00
6200;BME280;3133;43.214;27.906;2023-02-11T02:55:37;102607.78;;;-4.38;100.00
6200;BME280;3133;43.214;27.906;2023-02-11T03:01:25;102655.41;;;-4.10;100.00
6200;BME280;3133;43.214;27.906;2023-02-11T03:04:02;102655.53;;;-4.09;100.00
6200;BME280;3133;43.214;27.906;2023-02-11T03:06:35;102595.72;;;-4.49;100.00
6200;BME280;3133;43.214;27.906;2023-02-11T03:09:08;102650.06;;;-4.22;100.00
6200;BME280;3133;43.214;27.906;2023-02-11T03:11:38;102649.78;;;-4.25;100.00
6200;BME280;3133;43.214;27.906;2023-02-11T03:14:09;102651.44;;;-4.25;100.00
6200;BME280;3133;43.214;27.906;2023-02-11T03:16:37;102650.38;;;-4.27;100.00
6200;BME280;3133;43.214;27.906;2023-02-11T03:19:11;102590.22;;;-4.62;100.00
6200;BME280;3133;43.214;27.906;2023-02-11T03:21:40;102648.47;;;-4.30;100.00
6200;BME280;3133;43.214;27.906;2023-02-11T03:24:12;102659.13;;;-4.34;100.00
6200;BME280;3133;43.214;27.906;2023-02-11T03:26:44;102655.69;;;-4.34;100.00
6200;BME280;3133;43.214;27.906;2023-02-11T03:29:16;102591.59;;;-4.66;100.00
6200;BME280;3133;43.214;27.906;2023-02-11T03:31:51;102648.66;;;-4.37;100.00
6200;BME280;3133;43.214;27.906;2023-02-11T03:34:26;102642.66;;;-4.37;100.00
6200;BME280;3133;43.214;27.906;2023-02-11T03:36:59;102642.69;;;-4.46;100.00
6200;BME280;3133;43.214;27.906;2023-02-11T03:39:32;102569.81;;;-4.81;100.00
6200;BME280;3133;43.214;27.906;2023-02-11T03:42:02;102642.66;;;-4.37;100.00
6200;BME280;3133;43.214;27.906;2023-02-11T03:44:33;102608.47;;;-4.58;100.00
6200;BME280;3133;43.214;27.906;2023-02-11T03:47:04;102611.75;;;-4.59;100.00
6200;BME280;3133;43.214;27.906;2023-02-11T03:49:35;102646.28;;;-4.44;100.00
6200;BME280;3133;43.214;27.906;2023-02-11T03:52:05;102550.41;;;-4.98;100.00
6200;BME280;3133;43.214;27.906;2023-02-11T03:54:32;102620.91;;;-4.61;100.00
6200;BME280;3133;43.214;27.906;2023-02-11T03:57:01;102643.03;;;-4.51;100.00
6200;BME280;3133;43.214;27.906;2023-02-11T03:59:28;102645.88;;;-4.57;100.00
6200;BME280;3133;43.214;27.906;2023-02-11T04:01:55;102645.25;;;-4.54;100.00
6200;BME280;3133;43.214;27.906;2023-02-11T04:04:24;102642.22;;;-4.78;100.00
6200;BME280;3133;43.214;27.906;2023-02-11T04:06:52;102562.50;;;-5.31;100.00
6200;BME280;3133;43.214;27.906;2023-02-11T04:09:19;102457.00;;;-5.97;100.00
6200;BME280;3133;43.214;27.906;2023-02-11T04:11:46;102630.03;;;-5.16;100.00
6200;BME280;3133;43.214;27.906;2023-02-11T04:14:12;102594.63;;;-5.40;100.00
6200;BME280;3133;43.214;27.906;2023-02-11T04:16:39;102628.53;;;-5.05;100.00
6200;BME280;3133;43.214;27.906;2023-02-11T04:19:06;102624.59;;;-4.93;100.00
6200;BME280;3133;43.214;27.906;2023-02-11T04:21:33;102535.75;;;-5.53;100.00
6200;BME280;3133;43.214;27.906;2023-02-11T04:24:01;102618.34;;;-4.97;100.00
6200;BME280;3133;43.214;27.906;2023-02-11T04:26:28;102599.66;;;-5.14;100.00
6200;BME280;3133;43.214;27.906;2023-02-11T04:28:55;102622.19;;;-4.83;100.00
6200;BME280;3133;43.214;27.906;2023-02-11T04:31:22;102616.78;;;-4.78;100.00
6200;BME280;3133;43.214;27.906;2023-02-11T04:33:49;102578.78;;;-4.85;100.00
6200;BME280;3133;43.214;27.906;2023-02-11T04:36:16;102618.41;;;-4.78;100.00
6200;BME280;3133;43.214;27.906;2023-02-11T04:38:42;102611.31;;;-4.63;100.00
6200;BME280;3133;43.214;27.906;2023-02-11T04:41:11;102576.69;;;-4.80;100.00
6200;BME280;3133;43.214;27.906;2023-02-11T04:43:37;102603.41;;;-4.67;100.00
6200;BME280;3133;43.214;27.906;2023-02-11T04:46:04;102556.53;;;-4.96;100.00
6200;BME280;3133;43.214;27.906;2023-02-11T04:48:31;102582.06;;;-4.77;100.00
6200;BME280;3133;43.214;27.906;2023-02-11T04:50:59;102613.72;;;-4.65;100.00
6200;BME280;3133;43.214;27.906;2023-02-11T04:53:26;102602.91;;;-4.54;100.00
6200;BME280;3133;43.214;27.906;2023-02-11T04:55:53;102602.31;;;-4.51;100.00
6200;BME280;3133;43.214;27.906;2023-02-11T04:58:21;102606.19;;;-4.55;100.00
6200;BME280;3133;43.214;27.906;2023-02-11T05:00:48;102586.53;;;-4.66;100.00
6200;BME280;3133;43.214;27.906;2023-02-11T05:03:15;102603.81;;;-4.53;100.00
6200;BME280;3133;43.214;27.906;2023-02-11T05:05:43;102612.31;;;-4.53;100.00
6200;BME280;3133;43.214;27.906;2023-02-11T05:08:10;102608.81;;;-4.72;100.00
6200;BME280;3133;43.214;27.906;2023-02-11T05:10:37;102604.63;;;-4.72;100.00
6200;BME280;3133;43.214;27.906;2023-02-11T05:13:04;102603.59;;;-4.74;100.00
6200;BME280;3133;43.214;27.906;2023-02-11T05:15:32;102604.75;;;-4.70;100.00
6200;BME280;3133;43.214;27.906;2023-02-11T05:17:59;102601.78;;;-4.66;100.00
6200;BME280;3133;43.214;27.906;2023-02-11T05:20:26;102602.41;;;-4.77;100.00
6200;BME280;3133;43.214;27.906;2023-02-11T05:22:53;102571.75;;;-4.87;100.00
6200;BME280;3133;43.214;27.906;2023-02-11T05:25:19;102574.00;;;-4.82;100.00
6200;BME280;3133;43.214;27.906;2023-02-11T05:27:46;102521.47;;;-5.17;100.00
6200;BME280;3133;43.214;27.906;2023-02-11T05:30:13;102602.56;;;-4.76;100.00
6200;BME280;3133;43.214;27.906;2023-02-11T05:32:42;102604.75;;;-4.70;100.00
6200;BME280;3133;43.214;27.906;2023-02-11T05:35:09;102604.50;;;-4.73;100.00
6200;BME280;3133;43.214;27.906;2023-02-11T05:37:35;102591.69;;;-4.83;100.00
6200;BME280;3133;43.214;27.906;2023-02-11T05:40:03;102440.91;;;-5.62;100.00
6200;BME280;3133;43.214;27.906;2023-02-11T05:42:30;102599.97;;;-4.67;100.00
6200;BME280;3133;43.214;27.906;2023-02-11T05:44:57;102509.56;;;-5.26;100.00
6200;BME280;3133;43.214;27.906;2023-02-11T05:47:24;102470.88;;;-5.41;100.00
6200;BME280;3133;43.214;27.906;2023-02-11T05:49:52;102611.81;;;-4.76;100.00
6200;BME280;3133;43.214;27.906;2023-02-11T05:52:19;102496.09;;;-5.34;100.00
6200;BME280;3133;43.214;27.906;2023-02-11T05:54:46;102619.09;;;-4.53;100.00
6200;BME280;3133;43.214;27.906;2023-02-11T05:57:13;102615.94;;;-4.24;100.00
6200;BME280;3133;43.214;27.906;2023-02-11T05:59:40;102607.63;;;-2.91;100.00
6200;BME280;3133;43.214;27.906;2023-02-11T06:02:08;102614.59;;;-0.22;100.00
6200;BME280;3133;43.214;27.906;2023-02-11T06:04:35;102583.25;;;-0.51;100.00
6200;BME280;3133;43.214;27.906;2023-02-11T06:07:03;102619.06;;;-0.85;100.00
6200;BME280;3133;43.214;27.906;2023-02-11T06:09:30;102621.91;;;-1.33;100.00
6200;BME280;3133;43.214;27.906;2023-02-11T06:11:57;102606.91;;;-2.11;100.00
6200;BME280;3133;43.214;27.906;2023-02-11T06:14:24;102614.25;;;-2.44;100.00
6200;BME280;3133;43.214;27.906;2023-02-11T06:16:51;102606.19;;;-2.69;100.00
6200;BME280;3133;43.214;27.906;2023-02-11T06:19:17;102592.06;;;-3.23;100.00
6200;BME280;3133;43.214;27.906;2023-02-11T06:21:44;102602.03;;;-3.16;100.00
6200;BME280;3133;43.214;27.906;2023-02-11T06:24:13;102492.03;;;-4.15;100.00
6200;BME280;3133;43.214;27.906;2023-02-11T06:26:40;102578.00;;;-3.94;100.00
6200;BME280;3133;43.214;27.906;2023-02-11T06:29:07;102428.34;;;-4.71;100.00
6200;BME280;3133;43.214;27.906;2023-02-11T06:31:35;102615.09;;;-3.68;100.00
6200;BME280;3133;43.214;27.906;2023-02-11T06:34:03;102610.84;;;-3.59;100.00
6200;BME280;3133;43.214;27.906;2023-02-11T06:36:30;102602.66;;;-3.65;100.00
6200;BME280;3133;43.214;27.906;2023-02-11T06:38:57;102558.56;;;-3.83;100.00
6200;BME280;3133;43.214;27.906;2023-02-11T06:41:25;102617.25;;;-3.36;100.00
6200;BME280;3133;43.214;27.906;2023-02-11T06:43:52;102519.41;;;-3.94;100.00
6200;BME280;3133;43.214;27.906;2023-02-11T06:46:19;102619.09;;;-3.43;100.00
6200;BME280;3133;43.214;27.906;2023-02-11T06:48:47;102616.63;;;-3.52;100.00
6200;BME280;3133;43.214;27.906;2023-02-11T06:51:14;102482.44;;;-4.17;100.00
6200;BME280;3133;43.214;27.906;2023-02-11T06:53:52;102613.56;;;-3.48;100.00
6200;BME280;3133;43.214;27.906;2023-02-11T06:56:22;102548.25;;;-3.84;100.00
6200;BME280;3133;43.214;27.906;2023-02-11T06:58:56;102475.91;;;-4.24;100.00
6200;BME280;3133;43.214;27.906;2023-02-11T07:01:26;102558.72;;;-3.81;100.00
6200;BME280;3133;43.214;27.906;2023-02-11T07:04:08;102416.31;;;-4.63;100.00
6200;BME280;3133;43.214;27.906;2023-02-11T07:06:40;102549.47;;;-3.71;100.00
6200;BME280;3133;43.214;27.906;2023-02-11T07:09:07;102475.78;;;-4.07;100.00
6200;BME280;3133;43.214;27.906;2023-02-11T07:11:35;102536.03;;;-3.60;100.00
6200;BME280;3133;43.214;27.906;2023-02-11T07:17:18;102599.19;;;-3.47;100.00
6200;BME280;3133;43.214;27.906;2023-02-11T07:19:47;102608.03;;;-3.15;100.00
6200;BME280;3133;43.214;27.906;2023-02-11T07:22:15;102534.94;;;-3.25;100.00
6200;BME280;3133;43.214;27.906;2023-02-11T07:24:43;102422.09;;;-4.18;100.00
6200;BME280;3133;43.214;27.906;2023-02-11T07:27:14;102397.16;;;-3.94;100.00
6200;BME280;3133;43.214;27.906;2023-02-11T07:29:41;102533.22;;;-3.05;100.00
6200;BME280;3133;43.214;27.906;2023-02-11T07:32:10;102396.47;;;-3.72;100.00
6200;BME280;3133;43.214;27.906;2023-02-11T07:34:52;102573.28;;;-2.56;100.00
6200;BME280;3133;43.214;27.906;2023-02-11T07:37:22;102582.25;;;-2.41;100.00
6200;BME280;3133;43.214;27.906;2023-02-11T07:39:59;102558.59;;;-2.58;100.00
6200;BME280;3133;43.214;27.906;2023-02-11T07:42:40;102273.34;;;-4.02;100.00
6200;BME280;3133;43.214;27.906;2023-02-11T07:45:07;102573.69;;;-2.31;100.00
6200;BME280;3133;43.214;27.906;2023-02-11T07:47:38;102321.66;;;-3.73;100.00
6200;BME280;3133;43.214;27.906;2023-02-11T07:56:47;102433.38;;;-2.50;100.00
6200;BME280;3133;43.214;27.906;2023-02-11T07:59:24;102375.81;;;-2.76;100.00
6200;BME280;3133;43.214;27.906;2023-02-11T08:02:00;102476.47;;;-2.12;100.00
6200;BME280;3133;43.214;27.906;2023-02-11T08:04:31;102356.91;;;-2.68;100.00
6200;BME280;3133;43.214;27.906;2023-02-11T08:07:14;102558.06;;;-1.32;100.00
6200;BME280;3133;43.214;27.906;2023-02-11T08:09:42;102486.81;;;-1.59;100.00
6200;BME280;3133;43.214;27.906;2023-02-11T08:12:12;102555.78;;;-1.07;100.00
6200;BME280;3133;43.214;27.906;2023-02-11T08:14:40;102458.34;;;-1.74;100.00
6200;BME280;3133;43.214;27.906;2023-02-11T08:17:07;102412.00;;;-1.88;100.00
6200;BME280;3133;43.214;27.906;2023-02-11T08:19:34;102497.06;;;-1.37;100.00
6200;BME280;3133;43.214;27.906;2023-02-11T08:22:01;102399.16;;;-1.68;100.00
6200;BME280;3133;43.214;27.906;2023-02-11T08:24:31;102346.53;;;-1.98;100.00
6200;BME280;3133;43.214;27.906;2023-02-11T08:40:38;102525.78;;;-0.22;100.00
6200;BME280;3133;43.214;27.906;2023-02-11T08:43:08;102523.44;;;-0.30;100.00
6200;BME280;3133;43.214;27.906;2023-02-11T08:45:36;102495.44;;;-0.39;100.00
6200;BME280;3133;43.214;27.906;2023-02-11T08:48:12;102387.63;;;-0.75;100.00
6200;BME280;3133;43.214;27.906;2023-02-11T08:50:39;102460.69;;;-0.35;100.00
6200;BME280;3133;43.214;27.906;2023-02-11T08:53:29;102429.13;;;-0.34;100.00
6200;BME280;3133;43.214;27.906;2023-02-11T08:55:59;102380.69;;;-0.54;100.00
6200;BME280;3133;43.214;27.906;2023-02-11T08:58:27;102442.44;;;-0.05;100.00
6200;BME280;3133;43.214;27.906;2023-02-11T09:01:09;102433.88;;;0.06;100.00
6200;BME280;3133;43.214;27.906;2023-02-11T09:04:08;102461.06;;;0.27;100.00
6200;BME280;3133;43.214;27.906;2023-02-11T09:07:18;102489.88;;;0.83;100.00
6200;BME280;3133;43.214;27.906;2023-02-11T09:10:07;102390.91;;;0.15;100.00
6200;BME280;3133;43.214;27.906;2023-02-11T09:19:15;102477.69;;;0.80;100.00
6200;BME280;3133;43.214;27.906;2023-02-11T09:21:50;102476.88;;;0.93;100.00
6200;BME280;3133;43.214;27.906;2023-02-11T09:24:23;102470.88;;;1.17;100.00
6200;BME280;3133;43.214;27.906;2023-02-11T09:30:12;102468.66;;;1.10;100.00
6200;BME280;3133;43.214;27.906;2023-02-11T09:32:38;102456.63;;;1.09;100.00
6200;BME280;3133;43.214;27.906;2023-02-11T09:35:24;102462.28;;;1.16;100.00
6200;BME280;3133;43.214;27.906;2023-02-11T09:38:07;102455.56;;;1.43;100.00
6200;BME280;3133;43.214;27.906;2023-02-11T09:43:58;102436.84;;;1.70;100.00
6200;BME280;3133;43.214;27.906;2023-02-11T09:46:40;102429.97;;;1.82;100.00
6200;BME280;3133;43.214;27.906;2023-02-11T09:52:35;102428.47;;;1.86;100.00
6200;BME280;3133;43.214;27.906;2023-02-11T09:58:26;102403.66;;;1.86;100.00
6200;BME280;3133;43.214;27.906;2023-02-11T10:01:01;102406.03;;;1.96;100.00
6200;BME280;3133;43.214;27.906;2023-02-11T10:06:54;102400.47;;;2.29;100.00
6200;BME280;3133;43.214;27.906;2023-02-11T10:09:41;102398.88;;;2.45;100.00
6200;BME280;3133;43.214;27.906;2023-02-11T10:15:41;102389.94;;;2.53;100.00
6200;BME280;3133;43.214;27.906;2023-02-11T10:18:30;102378.97;;;2.70;100.00
6200;BME280;3133;43.214;27.906;2023-02-11T10:21:11;102373.59;;;2.80;100.00
6200;BME280;3133;43.214;27.906;2023-02-11T10:23:47;102366.94;;;3.11;100.00
6200;BME280;3133;43.214;27.906;2023-02-11T10:29:43;102360.25;;;3.00;100.00
6200;BME280;3133;43.214;27.906;2023-02-11T10:35:33;102353.50;;;3.31;100.00
6200;BME280;3133;43.214;27.906;2023-02-11T10:38:00;102353.59;;;3.47;100.00
6200;BME280;3133;43.214;27.906;2023-02-11T10:43:49;102346.22;;;3.39;100.00
6200;BME280;3133;43.214;27.906;2023-02-11T10:46:21;102350.38;;;3.66;100.00
6200;BME280;3133;43.214;27.906;2023-02-11T11:58:03;102223.41;;;5.00;100.00
6200;BME280;3133;43.214;27.906;2023-02-11T12:01:08;102227.03;;;5.04;100.00
6200;BME280;3133;43.214;27.906;2023-02-11T12:07:14;102189.06;;;5.03;100.00
6200;BME280;3133;43.214;27.906;2023-02-11T12:13:21;102203.84;;;5.05;100.00
6200;BME280;3133;43.214;27.906;2023-02-11T12:19:34;102201.91;;;5.01;99.51
6200;BME280;3133;43.214;27.906;2023-02-11T12:25:27;102180.72;;;5.08;85.73
6200;BME280;3133;43.214;27.906;2023-02-11T12:45:20;102165.94;;;5.41;75.54
6200;BME280;3133;43.214;27.906;2023-02-11T13:31:32;102128.56;;;5.34;69.77
6200;BME280;3133;43.214;27.906;2023-02-11T13:37:22;102122.13;;;5.26;68.90
6200;BME280;3133;43.214;27.906;2023-02-11T13:40:02;102131.91;;;5.32;70.43
6200;BME280;3133;43.214;27.906;2023-02-11T13:45:59;102118.19;;;5.15;71.07
6200;BME280;3133;43.214;27.906;2023-02-11T13:51:50;102113.88;;;5.16;71.96
6200;BME280;3133;43.214;27.906;2023-02-11T13:57:40;102110.19;;;5.11;71.07
6200;BME280;3133;43.214;27.906;2023-02-11T14:03:31;102112.69;;;5.09;67.79
6200;BME280;3133;43.214;27.906;2023-02-11T14:06:18;102108.13;;;5.04;67.68
6200;BME280;3133;43.214;27.906;2023-02-11T14:12:34;102102.66;;;4.98;69.34
6200;BME280;3133;43.214;27.906;2023-02-11T14:15:17;102094.19;;;5.00;70.34
6200;BME280;3133;43.214;27.906;2023-02-11T14:21:10;102081.78;;;4.93;70.29
6200;BME280;3133;43.214;27.906;2023-02-11T14:27:03;102094.25;;;4.84;72.62
6200;BME280;3133;43.214;27.906;2023-02-11T14:30:05;102086.13;;;4.77;74.75
6200;BME280;3133;43.214;27.906;2023-02-11T14:36:04;102077.53;;;4.60;77.89
6200;BME280;3133;43.214;27.906;2023-02-11T14:41:55;102076.59;;;4.58;78.52
6200;BME280;3133;43.214;27.906;2023-02-11T14:44:30;102078.16;;;4.54;79.54
6200;BME280;3133;43.214;27.906;2023-02-11T14:50:24;102069.22;;;4.48;81.33
6200;BME280;3133;43.214;27.906;2023-02-11T14:52:52;102073.25;;;4.43;82.72
6200;BME280;3133;43.214;27.906;2023-02-11T14:58:45;102043.13;;;4.26;82.72
6200;BME280;3133;43.214;27.906;2023-02-11T15:04:33;102071.81;;;4.32;82.97
6200;BME280;3133;43.214;27.906;2023-02-11T15:10:29;102069.66;;;4.23;83.38
6200;BME280;3133;43.214;27.906;2023-02-11T15:16:20;102063.97;;;4.13;83.13
6200;BME280;3133;43.214;27.906;2023-02-11T15:18:53;102049.88;;;4.06;83.44
6200;BME280;3133;43.214;27.906;2023-02-11T15:27:49;102052.84;;;3.80;84.92
6200;BME280;3133;43.214;27.906;2023-02-11T15:33:38;102051.06;;;3.63;86.24
6200;BME280;3133;43.214;27.906;2023-02-11T15:36:12;102053.66;;;3.63;86.69
6200;BME280;3133;43.214;27.906;2023-02-11T15:42:21;102056.28;;;3.48;87.70
6200;BME280;3133;43.214;27.906;2023-02-11T15:45:08;102059.19;;;3.38;87.97
6200;BME280;3133;43.214;27.906;2023-02-11T15:50:59;102059.56;;;3.30;89.39
6200;BME280;3133;43.214;27.906;2023-02-11T15:53:36;102050.56;;;3.22;90.21
6200;BME280;3133;43.214;27.906;2023-02-11T15:59:28;102056.16;;;3.15;92.68
6200;BME280;3133;43.214;27.906;2023-02-11T16:02:07;102061.25;;;3.13;93.60
6200;BME280;3133;43.214;27.906;2023-02-11T16:04:59;102042.78;;;3.05;94.75
6200;BME280;3133;43.214;27.906;2023-02-11T16:07:59;102042.72;;;3.04;95.70
6200;BME280;3133;43.214;27.906;2023-02-11T16:14:01;102048.63;;;2.87;98.34
6200;BME280;3133;43.214;27.906;2023-02-11T16:20:18;102034.63;;;2.67;100.00
6200;BME280;3133;43.214;27.906;2023-02-11T16:22:46;102031.88;;;2.64;100.00
6200;BME280;3133;43.214;27.906;2023-02-11T16:28:40;102037.41;;;2.56;100.00
6200;BME280;3133;43.214;27.906;2023-02-11T16:34:28;102052.34;;;2.47;100.00
6200;BME280;3133;43.214;27.906;2023-02-11T16:40:19;102047.38;;;2.35;100.00
6200;BME280;3133;43.214;27.906;2023-02-11T16:42:47;102039.47;;;2.32;100.00
6200;BME280;3133;43.214;27.906;2023-02-11T16:48:36;102041.06;;;2.15;100.00
6200;BME280;3133;43.214;27.906;2023-02-11T16:51:10;102038.94;;;2.08;100.00
6200;BME280;3133;43.214;27.906;2023-02-11T16:57:21;102037.44;;;1.97;100.00
6200;BME280;3133;43.214;27.906;2023-02-11T17:00:05;102032.81;;;1.92;100.00
6200;BME280;3133;43.214;27.906;2023-02-11T17:05:55;102033.72;;;1.92;100.00
6200;BME280;3133;43.214;27.906;2023-02-11T17:11:44;102030.72;;;1.99;100.00
6200;BME280;3133;43.214;27.906;2023-02-11T17:14:19;102029.63;;;1.96;100.00
6200;BME280;3133;43.214;27.906;2023-02-11T17:20:11;102031.47;;;1.84;100.00
6200;BME280;3133;43.214;27.906;2023-02-11T17:22:38;102025.91;;;1.91;100.00
6200;BME280;3133;43.214;27.906;2023-02-11T17:28:26;102030.59;;;1.83;100.00
6200;BME280;3133;43.214;27.906;2023-02-11T17:34:22;102029.31;;;1.62;100.00
6200;BME280;3133;43.214;27.906;2023-02-11T17:40:12;102019.09;;;1.49;100.00
6200;BME280;3133;43.214;27.906;2023-02-11T17:43:02;102019.50;;;1.42;100.00
6200;BME280;3133;43.214;27.906;2023-02-11T17:45:54;102017.84;;;1.42;100.00
6200;BME280;3133;43.214;27.906;2023-02-11T17:51:44;102012.63;;;1.41;100.00
6200;BME280;3133;43.214;27.906;2023-02-11T17:57:32;102015.44;;;1.31;100.00
6200;BME280;3133;43.214;27.906;2023-02-11T18:00:30;102001.50;;;1.27;100.00
6200;BME280;3133;43.214;27.906;2023-02-11T18:06:18;102004.75;;;1.25;100.00
6200;BME280;3133;43.214;27.906;2023-02-11T18:08:59;102007.25;;;1.23;100.00
6200;BME280;3133;43.214;27.906;2023-02-11T18:14:51;101991.41;;;1.03;100.00
6200;BME280;3133;43.214;27.906;2023-02-11T18:17:18;101996.13;;;1.10;100.00
6200;BME280;3133;43.214;27.906;2023-02-11T18:26:05;101993.63;;;0.97;100.00
6200;BME280;3133;43.214;27.906;2023-02-11T18:35:11;101997.56;;;0.92;100.00
6200;BME280;3133;43.214;27.906;2023-02-11T18:41:02;101983.47;;;0.85;100.00
6200;BME280;3133;43.214;27.906;2023-02-11T18:46:51;101985.72;;;0.81;100.00
6200;BME280;3133;43.214;27.906;2023-02-11T18:49:23;101984.75;;;0.78;100.00
6200;BME280;3133;43.214;27.906;2023-02-11T18:55:13;101977.84;;;0.77;100.00
6200;BME280;3133;43.214;27.906;2023-02-11T19:56:35;101917.81;;;0.22;100.00
6200;BME280;3133;43.214;27.906;2023-02-11T20:02:24;101900.97;;;0.12;100.00
6200;BME280;3133;43.214;27.906;2023-02-11T20:08:13;101892.22;;;0.09;100.00
6200;BME280;3133;43.214;27.906;2023-02-11T20:10:41;101886.59;;;0.01;100.00
6200;BME280;3133;43.214;27.906;2023-02-11T20:16:32;101881.38;;;-0.14;100.00
6200;BME280;3133;43.214;27.906;2023-02-11T20:18:59;101857.09;;;-0.32;100.00
6200;BME280;3133;43.214;27.906;2023-02-11T20:24:48;101875.94;;;-0.18;100.00
6200;BME280;3133;43.214;27.906;2023-02-11T20:27:15;101874.88;;;-0.22;100.00
6200;BME280;3133;43.214;27.906;2023-02-11T20:33:29;101865.69;;;-0.31;100.00
6200;BME280;3133;43.214;27.906;2023-02-11T20:39:18;101849.31;;;-0.46;100.00
6200;BME280;3133;43.214;27.906;2023-02-11T20:41:52;101850.69;;;-0.51;100.00
6200;BME280;3133;43.214;27.906;2023-02-11T20:44:52;101848.94;;;-0.52;100.00